Stratford, South Dakota
Current Conditions -  °F | °C
As of 1:53 PM on Friday 28 Nov 2014 (Local Time) from KABR Reporting Station
Few Clouds Few Clouds  
Wind Chill: 12°   Ceiling: Unl
Heat Index: 22°   Visibility: 10mi
Dew Point: 15°   Wind: 9mph
Humidity: 75%   Direction: 30°NNE
Pressure: 29.71"   Gusts: NA
Location:  45.32°N, 98.3°W
Report Text: KABR 281953Z AUTO 03008KT 10SM FEW120 M06/M09 A2971 RMK AO2 SLP085 T10561094
Loading
Personal Weather Stations






























Interactive Weather Map New forecast layout! Learn more

10-Day Weather Forecast

Advertisements
Track Severe Weather on mobile